メインページ
METAR-TAF:

METAR-TAF

空港 :

ドゥシャンベ, タジキスタン

ドゥシャンベ空港

緯度: 38-33N, 経度: 068-47E, 海抜: 803m

現時点の気象観測

当レポートは37分前の23:00(UTC)に作成
変向風 2kt
気温 16°C
湿度 55%
気圧 1017 hPa
視程10km以上

METAR: UTDD 232300Z VRB01MPS 9999 NSC 16/07 Q1017 R09/D NOSIG RMK QFE694/0926

時間: 04:37 (23:37 UTC)

予報

当レポートは2時間37分前の21:00(UTC)に作成
予報は23日の 22時(UTC)から 24日の 10時(UTC)まで有効
変向風 4kt
視程: 6000m
高度6600ftの雲はほとんどない, 積乱雲.
高度10000ftの雲は散在している

TAF: UTDD 232100Z 2322/2410 VRB02MPS 6000 FEW066CB SCT100

4,000以上の空港の気象観測と天気予報(METAR報とTAF報)

利用可能な観測所は地図上に黄色い丸と赤い丸で示す。

丸の上にカーソルを重ねると観測所名を参照できる。

次にクリックすると気象観測と天気予報を参照できる。

マップの切り替え:黒色「×」印の緑ボタンをクリックして拡大、「-」印の緑ボタンをクリックして縮小、緑色の三角印をクリックして隣りの地図に切り替え


METAR-TAF: